Time;durP1;ratioP1;P1;durP2;ratioP2;P2;SDS_P1;SDS_P2;PMS_P1;PMS_P2;Temp;Humidity;BMP_temperature;BMP_pressure;BME280_temperature;BME280_humidity;BME280_pressure;Samples;Min_cycle;Max_cycle;Signal;HPM_P1;HPM_P2
2022/06/04 00:00:13;;;;;;;3.40;2.03;;;;;;;-146.64;96.17;38556.06;5066617;28;20040;-79
2022/06/04 00:02:42;;;;;;;5.95;2.15;;;;;;;-146.64;95.70;38531.50;5055211;28;20020;-79
2022/06/04 00:05:10;;;;;;;5.30;2.75;;;;;;;-146.64;95.41;38562.19;5071763;28;20025;-79
2022/06/04 00:07:35;;;;;;;4.10;1.80;;;;;;;-146.64;95.33;38617.44;5057185;28;20028;-79
2022/06/04 00:15:34;;;;;;;5.93;2.33;;;;;;;-146.64;96.56;38654.28;5074764;28;20086;-78
2022/06/04 00:18:00;;;;;;;7.47;2.13;;;;;;;-146.64;96.71;38609.25;5039769;28;20434;-78
2022/06/04 00:20:26;;;;;;;5.10;2.50;;;;;;;-146.64;96.98;38637.91;5052350;28;20025;-79
2022/06/04 00:22:57;;;;;;;3.87;2.33;;;;;;;-146.64;97.34;38621.53;5036306;28;20277;-79
2022/06/04 00:25:22;;;;;;;4.70;2.28;;;;;;;-146.64;96.70;38613.34;5039699;28;20032;-78
2022/06/04 00:27:48;;;;;;;3.97;2.03;;;;;;;-146.64;97.61;38631.78;5055436;28;20021;-78
2022/06/04 00:30:13;;;;;;;5.93;2.43;;;;;;;-146.64;98.11;38682.94;5056269;28;20032;-78
2022/06/04 00:32:39;;;;;;;4.43;2.00;;;;;;;-146.64;98.09;38658.38;5038691;28;20024;-78
2022/06/04 00:35:05;;;;;;;3.10;2.20;;;;;;;-146.64;98.90;38644.03;5070020;28;20029;-79
2022/06/04 00:37:32;;;;;;;7.35;2.47;;;;;;;-146.64;98.42;38662.47;5057212;28;20075;-78
2022/06/04 00:40:02;;;;;;;5.43;2.00;;;;;;;-146.64;98.57;38642.00;5056648;28;20033;-79
2022/06/04 00:42:27;;;;;;;6.45;2.45;;;;;;;-146.64;98.77;38707.47;5051107;28;20021;-79
2022/06/04 00:45:21;;;;;;;7.60;2.50;;;;;;;-146.64;98.65;38670.66;5050193;28;20031;-79
2022/06/04 00:47:47;;;;;;;5.32;2.67;;;;;;;-146.64;98.41;38695.19;5069899;28;20040;-78
2022/06/04 00:50:15;;;;;;;3.10;2.72;;;;;;;-146.64;98.36;38701.34;5039978;28;20032;-80
2022/06/04 00:52:41;;;;;;;4.28;2.17;;;;;;;-146.64;99.08;38680.88;5037633;28;20033;-79
2022/06/04 00:55:08;;;;;;;2.58;2.30;;;;;;;-146.64;99.59;38687.03;5035447;28;20064;-78
2022/06/04 00:57:52;;;;;;;;;;;;;;;-146.64;99.18;38732.03;5053927;28;20086;-79
2022/06/04 01:00:46;;;;;;;7.70;2.35;;;;;;;-146.64;99.21;38689.06;5077350;28;20363;-78
2022/06/04 01:03:40;;;;;;;2.90;2.10;;;;;;;-146.64;99.91;38750.44;5072485;28;20506;-79
2022/06/04 01:06:21;;;;;;;3.78;2.40;;;;;;;-146.64;100.00;38695.19;5055335;28;20040;-78
2022/06/04 01:08:58;;;;;;;5.93;2.30;;;;;;;-146.64;99.79;38719.75;5068684;28;20119;-78
2022/06/04 01:11:32;;;;;;;4.32;2.20;;;;;;;-146.64;100.00;38723.84;5041821;28;20066;-78
2022/06/04 01:14:21;;;;;;;4.63;2.22;;;;;;;-146.64;100.00;38727.94;5050191;28;20057;-79
2022/06/04 01:17:05;;;;;;;3.92;1.95;;;;;;;-146.64;100.00;38730.00;5036885;28;20120;-79
2022/06/04 01:20:00;;;;;;;3.67;2.00;;;;;;;-146.64;100.00;38760.69;5053074;28;20581;-78
2022/06/04 01:22:28;;;;;;;4.47;2.33;;;;;;;-146.64;100.00;38717.72;5067121;28;20024;-78
2022/06/04 01:25:36;;;;;;;5.32;2.40;;;;;;;-146.64;100.00;38748.41;5052744;28;20039;-79
2022/06/04 01:28:02;;;;;;;8.85;2.40;;;;;;;-146.64;99.43;38748.41;4990377;28;20040;-78
2022/06/04 01:30:34;;;;;;;5.45;2.13;;;;;;;-146.64;99.77;38772.97;5075624;28;20479;-79
2022/06/04 01:33:12;;;;;;;7.65;2.40;;;;;;;-146.64;100.00;38772.97;5063502;28;20066;-78
2022/06/04 01:35:59;;;;;;;6.38;2.42;;;;;;;-146.64;100.00;38756.59;5051806;28;20477;-79
2022/06/04 01:38:33;;;;;;;7.57;2.20;;;;;;;-146.64;100.00;38703.38;5028330;28;20028;-78
2022/06/04 01:41:13;;;;;;;3.45;2.35;;;;;;;-146.64;100.00;38822.06;5041399;28;20131;-79
2022/06/04 01:43:48;;;;;;;5.43;2.75;;;;;;;-146.64;100.00;38785.25;5029193;28;20032;-79
2022/06/04 01:46:40;;;;;;;10.15;2.78;;;;;;;-146.64;100.00;38834.34;5073925;28;20036;-79
2022/06/04 01:49:14;;;;;;;5.95;2.45;;;;;;;-146.64;100.00;38813.88;5036296;28;20037;-77
2022/06/04 01:51:39;;;;;;;7.90;2.80;;;;;;;-146.64;100.00;38805.69;5040861;28;20024;-77
2022/06/04 01:54:16;;;;;;;4.77;2.40;;;;;;;-146.64;100.00;38805.69;5036128;28;20124;-77
2022/06/04 01:56:49;;;;;;;7.88;2.85;;;;;;;-146.64;100.00;38828.22;5054236;28;20119;-77
2022/06/04 01:59:28;;;;;;;9.45;3.10;;;;;;;-146.64;100.00;38838.44;5069581;28;20505;-79
2022/06/04 02:01:56;;;;;;;4.35;2.83;;;;;;;-146.64;100.00;38830.25;5051173;28;20027;-78
2022/06/04 02:04:32;;;;;;;6.05;2.67;;;;;;;-146.64;100.00;38822.06;5051028;28;20475;-77
2022/06/04 02:09:49;;;;;;;4.13;2.70;;;;;;;-146.64;100.00;38830.25;5052524;28;20175;-78
2022/06/04 02:12:15;;;;;;;5.93;2.75;;;;;;;-146.64;100.00;38842.53;5035953;28;20053;-78
2022/06/04 02:14:41;;;;;;;6.37;3.20;;;;;;;-146.64;100.00;38809.78;5073391;28;20096;-78
2022/06/04 02:17:13;;;;;;;5.50;2.80;;;;;;;-146.64;100.00;38828.22;5075457;28;20021;-77
2022/06/04 02:19:39;;;;;;;6.93;3.30;;;;;;;-146.64;100.00;38813.88;5073954;28;20048;-78
2022/06/04 02:22:04;;;;;;;6.27;3.37;;;;;;;-146.64;100.00;38842.53;5055497;28;20132;-77
2022/06/04 02:24:30;;;;;;;4.43;3.17;;;;;;;-146.64;100.00;38842.53;5056011;28;20033;-78
2022/06/04 02:26:55;;;;;;;6.33;3.60;;;;;;;-146.64;100.00;38830.25;5072846;28;20032;-78
2022/06/04 02:29:21;;;;;;;5.87;3.30;;;;;;;-146.64;100.00;38881.41;5071311;28;20109;-79
2022/06/04 02:31:58;;;;;;;6.90;3.90;;;;;;;-146.64;100.00;38879.38;5054620;28;20082;-78
2022/06/04 02:34:33;;;;;;;7.55;3.17;;;;;;;-146.64;100.00;38881.41;5054259;28;20127;-78
2022/06/04 02:37:01;;;;;;;4.93;3.15;;;;;;;-146.64;100.00;38873.22;5053104;28;20046;-78
2022/06/04 02:39:33;;;;;;;9.70;3.35;;;;;;;-146.64;100.00;38871.19;5071506;28;20032;-77
2022/06/04 02:42:01;;;;;;;5.93;3.85;;;;;;;-146.64;100.00;38916.22;5055905;28;20021;-79
2022/06/04 02:44:30;;;;;;;9.40;4.10;;;;;;;-146.64;100.00;38830.25;5071531;28;20115;-78
2022/06/04 02:47:05;;;;;;;8.32;3.95;;;;;;;-146.64;100.00;38928.50;5054887;28;20028;-78
2022/06/04 02:49:53;;;;;;;9.18;4.15;;;;;;;-146.64;100.00;38905.97;5072356;28;20397;-77
2022/06/04 02:52:19;;;;;;;5.90;3.90;;;;;;;-146.64;100.00;38914.16;5052679;28;20052;-78
2022/06/04 02:54:57;;;;;;;8.07;4.68;;;;;;;-146.64;100.00;38953.03;5052534;28;20039;-78
2022/06/04 02:57:24;;;;;;;6.53;4.18;;;;;;;-146.64;100.00;38932.56;5035355;28;20372;-77
2022/06/04 02:59:50;;;;;;;5.90;4.03;;;;;;;-146.64;100.00;38922.34;5038936;28;20039;-77
2022/06/04 03:02:17;;;;;;;5.33;4.40;;;;;;;-146.64;100.00;38998.06;5055702;28;20033;-77
2022/06/04 03:04:49;;;;;;;5.32;4.07;;;;;;;-146.64;100.00;38867.09;5035703;28;20029;-77
2022/06/04 03:07:16;;;;;;;6.03;4.10;;;;;;;-146.64;100.00;39002.16;5052589;28;20047;-77
2022/06/04 03:09:44;;;;;;;7.18;4.00;;;;;;;-146.64;100.00;39069.69;5070045;28;20041;-77
2022/06/04 03:12:11;;;;;;;7.05;4.30;;;;;;;-146.64;100.00;39081.97;5037740;28;20047;-77
2022/06/04 03:14:36;;;;;;;9.38;4.45;;;;;;;-146.64;100.00;39145.41;5050742;28;20027;-78
2022/06/04 03:17:02;;;;;;;5.80;4.23;;;;;;;-146.64;100.00;39059.47;5055153;28;20108;-78
2022/06/04 03:19:27;;;;;;;9.77;4.23;;;;;;;-146.64;100.00;39084.00;5052610;28;20035;-76
2022/06/04 03:21:53;;;;;;;12.03;5.07;;;;;;;-146.64;100.00;39067.66;5055899;28;20056;-77
2022/06/04 03:24:18;;;;;;;9.53;4.63;;;;;;;-146.64;100.00;39090.16;5054269;28;20020;-77
2022/06/04 03:26:43;;;;;;;6.93;4.47;;;;;;;-146.64;100.00;39104.47;5054080;28;20040;-77
2022/06/04 03:29:09;;;;;;;6.63;4.23;;;;;;;-146.64;100.00;39370.53;5070928;28;20071;-77
2022/06/04 03:31:34;;;;;;;8.43;5.07;;;;;;;-146.64;100.00;39743.03;5057880;28;20426;-78
2022/06/04 03:34:00;;;;;;;9.40;4.93;;;;;;;-146.64;100.00;39648.88;5053035;28;20186;-78
2022/06/04 03:36:26;;;;;;;5.77;4.33;;;;;;;-146.64;100.00;39669.34;5071651;28;20032;-77
2022/06/04 03:38:56;;;;;;;10.00;5.10;;;;;;;-146.64;100.00;39632.50;5046705;28;20410;-78
2022/06/04 03:41:22;;;;;;;10.85;5.05;;;;;;;-146.64;100.00;40201.56;5060147;28;20068;-77
2022/06/04 03:43:51;;;;;;;7.30;4.60;;;;;;;-146.64;100.00;40727.69;5075705;28;20051;-78
2022/06/04 03:46:26;;;;;;;7.55;3.95;;;;;;;-146.64;100.00;40142.19;5074755;28;20028;-77
2022/06/04 03:48:53;;;;;;;7.90;4.28;;;;;;;-146.64;100.00;40674.44;5075772;28;20398;-79
2022/06/04 03:51:18;;;;;;;10.52;4.40;;;;;;;-146.64;100.00;41999.28;5041599;28;20035;-77
2022/06/04 03:53:44;;;;;;;11.30;4.83;;;;;;;-146.64;100.00;41587.66;5036642;28;20032;-78
2022/06/04 03:56:09;;;;;;;8.53;5.07;;;;;;;-146.64;100.00;41903.03;5044728;28;20095;-79
2022/06/04 03:58:34;;;;;;;7.30;4.43;;;;;;;-146.64;100.00;41364.44;5074304;28;20036;-78
2022/06/04 04:01:00;;;;;;;8.03;4.40;;;;;;;-146.64;100.00;41286.66;5038126;28;20044;-78
2022/06/04 04:03:25;;;;;;;8.80;4.80;;;;;;;-146.64;100.00;40920.13;5060573;28;20579;-78
2022/06/04 04:05:54;;;;;;;9.70;5.40;;;;;;;-146.64;100.00;42513.34;5071971;28;20103;-79
2022/06/04 04:08:21;;;;;;;7.55;4.80;;;;;;;-146.64;100.00;43215.97;5061325;28;20037;-78
2022/06/04 04:10:46;;;;;;;7.07;4.40;;;;;;;-146.64;100.00;42503.13;5077029;28;20032;-78
2022/06/04 04:13:13;;;;;;;14.83;4.80;;;;;;;-146.64;100.00;43566.31;5055411;28;20036;-78
2022/06/04 04:15:39;;;;;;;;;;;;;;;-146.64;100.00;42445.78;5059222;28;20024;-78
2022/06/04 04:18:05;;;;;;;10.27;4.40;;;;;;;-146.64;100.00;42396.63;5074554;28;19936;-78
2022/06/04 04:20:33;;;;;;;9.30;4.28;;;;;;;-146.64;100.00;42877.97;5075200;28;20116;-78
2022/06/04 04:22:59;;;;;;;9.00;4.60;;;;;;;-146.64;100.00;41929.66;5057543;28;20529;-79
2022/06/04 04:25:27;;;;;;;14.38;4.85;;;;;;;-146.64;100.00;41159.69;5077987;28;20032;-77
2022/06/04 04:27:52;;;;;;;9.40;4.30;;;;;;;-146.64;100.00;40664.22;5074197;28;20033;-78
2022/06/04 04:30:21;;;;;;;7.50;4.50;;;;;;;-146.64;100.00;39734.84;5076521;28;20032;-77
2022/06/04 04:32:47;;;;;;;6.13;4.18;;;;;;;-146.64;100.00;39057.41;5078374;28;20036;-77
2022/06/04 04:35:17;;;;;;;8.77;4.05;;;;;;;-146.64;100.00;38736.13;5076964;28;20024;-78
2022/06/04 04:37:42;;;;;;;4.80;3.92;;;;;;;-146.64;100.00;38727.94;5041186;28;20080;-77
2022/06/04 04:40:09;;;;;;;10.20;4.43;;;;;;;-146.64;100.00;38621.53;5044020;28;20095;-78
2022/06/04 04:42:35;;;;;;;16.35;5.63;;;;;;;-146.64;100.00;38687.03;5055442;28;20168;-77
2022/06/04 04:45:00;;;;;;;7.97;4.27;;;;;;;-146.64;100.00;38447.63;5066421;28;20173;-79
2022/06/04 04:47:25;;;;;;;9.43;4.00;;;;;;;-146.64;100.00;38290.06;5060843;28;20111;-77
2022/06/04 04:49:51;;;;;;;6.63;4.27;;;;;;;-146.64;100.00;38279.84;5043014;28;20086;-78
2022/06/04 04:52:16;;;;;;;11.63;4.27;;;;;;;-146.64;100.00;38347.34;5057505;28;20063;-78
2022/06/04 04:54:41;;;;;;;10.77;3.73;;;;;;;-146.64;100.00;38398.50;5056947;28;20024;-78
2022/06/04 04:57:07;;;;;;;10.03;4.27;;;;;;;-146.64;100.00;38259.38;5061210;28;20044;-78
2022/06/04 04:59:32;;;;;;;5.93;3.87;;;;;;;-146.64;100.00;38124.34;5056090;28;20039;-78
2022/06/04 05:01:58;;;;;;;9.93;4.13;;;;;;;-146.64;100.00;37917.69;5040886;28;20029;-78
2022/06/04 05:04:23;;;;;;;7.53;4.07;;;;;;;-146.64;100.00;37786.75;5056059;28;20021;-78
2022/06/04 05:06:48;;;;;;;7.77;3.80;;;;;;;-146.64;100.00;37782.66;5062506;28;20471;-77
2022/06/04 05:09:14;;;;;;;7.43;3.60;;;;;;;-146.64;100.00;37729.47;5055600;28;20032;-78
2022/06/04 05:11:39;;;;;;;7.23;4.10;;;;;;;-146.64;100.00;37758.13;5060554;28;20056;-77
2022/06/04 05:14:05;;;;;;;8.33;4.17;;;;;;;-146.64;100.00;37803.13;5074583;28;20327;-79
2022/06/04 05:16:33;;;;;;;13.80;4.37;;;;;;;-146.64;100.00;37733.56;5062404;28;20067;-79
2022/06/04 05:19:01;;;;;;;13.07;3.92;;;;;;;-146.64;100.00;37754.03;5058621;28;20028;-79
2022/06/04 05:21:44;;;;;;;7.38;4.57;;;;;;;-146.64;100.00;37670.16;5059810;28;20468;-78
2022/06/04 05:24:22;;;;;;;9.27;3.88;;;;;;;-146.64;100.00;37694.69;5059271;28;20028;-79
2022/06/04 05:26:47;;;;;;;;;;;;;;;-146.64;100.00;37901.31;5064409;28;20059;-78
2022/06/04 05:29:13;;;;;;;12.05;3.85;;;;;;;-146.64;100.00;37960.66;5038558;28;19917;-79
2022/06/04 05:31:39;;;;;;;8.03;4.03;;;;;;;-146.64;100.00;37895.19;5069314;28;20029;-80
2022/06/04 05:34:06;;;;;;;7.63;4.43;;;;;;;-146.64;100.00;37819.50;5034756;28;20135;-78
2022/06/04 05:36:31;;;;;;;12.55;4.40;;;;;;;-146.64;100.00;37852.22;5054427;28;20031;-79
2022/06/04 05:38:57;;;;;;;9.57;5.50;;;;;;;-146.64;100.00;37778.59;5056036;28;20458;-80
2022/06/04 05:41:22;;;;;;;10.57;4.40;;;;;;;-146.64;100.00;37672.19;5055390;28;20344;-79
2022/06/04 05:43:47;;;;;;;11.47;4.90;;;;;;;-146.64;100.00;37537.19;5054880;28;20448;-79
2022/06/04 05:46:15;;;;;;;11.33;4.33;;;;;;;-146.64;100.00;37353.06;5054130;28;20020;-79
2022/06/04 05:48:43;;;;;;;12.00;4.70;;;;;;;-146.64;100.00;37447.19;5077243;28;20035;-78
2022/06/04 05:51:10;;;;;;;8.25;4.50;;;;;;;-146.64;100.00;37451.25;5059343;28;20586;-80
2022/06/04 05:53:35;;;;;;;12.05;4.82;;;;;;;-146.64;100.00;37545.38;5067764;28;20050;-79
2022/06/04 05:56:01;;;;;;;10.13;4.17;;;;;;;-146.64;100.00;37733.56;5057006;28;20040;-78
2022/06/04 05:58:26;;;;;;;10.57;4.97;;;;;;;-146.64;100.00;37727.44;5056689;28;20024;-79
2022/06/04 06:00:59;;;;;;;11.37;5.00;;;;;;;-146.64;100.00;37702.88;5038353;28;20053;-79
2022/06/04 06:03:25;;;;;;;10.75;4.95;;;;;;;-146.64;100.00;37741.75;5030786;28;20361;-79
2022/06/04 06:05:50;;;;;;;13.70;4.83;;;;;;;-146.64;100.00;37694.69;5056771;28;20028;-79
2022/06/04 06:08:15;;;;;;;8.17;4.83;;;;;;;-146.64;100.00;37598.56;5069524;28;20039;-79
2022/06/04 06:10:43;;;;;;;9.70;4.80;;;;;;;-146.64;100.00;37659.94;5055262;28;20029;-79
2022/06/04 06:13:10;;;;;;;10.30;4.35;;;;;;;-146.64;100.00;37455.34;5070674;28;20093;-80
2022/06/04 06:15:37;;;;;;;12.05;5.15;;;;;;;-146.64;100.00;37398.06;5057602;28;20368;-78
2022/06/04 06:18:03;;;;;;;10.00;5.00;;;;;;;-146.64;100.00;37269.22;5040092;28;20032;-80
2022/06/04 06:20:28;;;;;;;11.00;4.75;;;;;;;-146.64;100.00;37226.25;5032917;28;20044;-80
2022/06/04 06:22:54;;;;;;;12.33;5.07;;;;;;;-146.64;100.00;37244.66;5042184;28;20033;-79
2022/06/04 06:25:20;;;;;;;10.87;4.77;;;;;;;-146.64;100.00;37013.53;5037838;28;20017;-78
2022/06/04 06:27:45;;;;;;;15.33;5.50;;;;;;;-146.64;100.00;37512.63;5061186;28;20320;-79
2022/06/04 06:30:11;;;;;;;11.90;4.67;;;;;;;-146.64;100.00;37320.34;5071843;28;20033;-79
2022/06/04 06:32:37;;;;;;;9.50;5.63;;;;;;;-146.64;100.00;37441.03;5074414;28;20059;-79
2022/06/04 06:35:03;;;;;;;12.07;5.00;;;;;;;-146.64;100.00;37559.69;5051432;28;20028;-80
2022/06/04 06:37:28;;;;;;;11.40;5.55;;;;;;;-146.64;100.00;37479.91;5075415;28;20024;-81
2022/06/04 06:39:55;;;;;;;15.60;6.13;;;;;;;-146.64;100.00;37526.94;5071958;28;20044;-80
2022/06/04 06:42:21;;;;;;;;;;;;;;;-146.64;100.00;37492.19;5076331;28;20055;-80
2022/06/04 06:44:46;;;;;;;15.80;6.40;;;;;;;-146.64;100.00;37698.78;5057767;28;19920;-79
2022/06/04 06:47:12;;;;;;;11.67;4.83;;;;;;;-146.64;100.00;37635.38;5059765;28;20032;-79
2022/06/04 06:49:37;;;;;;;11.13;4.30;;;;;;;-146.64;100.00;37739.72;5077475;28;20033;-80
2022/06/04 06:52:04;;;;;;;10.40;4.90;;;;;;;-146.64;100.00;37606.75;5074692;28;20491;-81
2022/06/04 06:54:33;;;;;;;14.18;5.38;;;;;;;-146.64;100.00;37633.34;5059223;28;20033;-79
2022/06/04 06:57:00;;;;;;;9.65;5.05;;;;;;;-146.64;100.00;37778.59;5055150;28;20028;-80
2022/06/04 06:59:26;;;;;;;10.32;6.30;;;;;;;-146.64;100.00;37659.94;5039810;28;20082;-81
2022/06/04 07:01:52;;;;;;;12.47;4.77;;;;;;;-146.64;100.00;37737.66;5070590;28;20033;-81
2022/06/04 07:04:18;;;;;;;12.37;4.90;;;;;;;-146.64;100.00;37733.56;5071694;28;20050;-80
2022/06/04 07:06:46;;;;;;;8.38;4.97;;;;;;;-146.64;100.00;37797.00;5076360;28;20032;-81
2022/06/04 07:09:21;;;;;;;10.45;5.57;;;;;;;-146.64;100.00;37897.25;5072232;28;20188;-78
2022/06/04 07:11:47;;;;;;;14.48;5.60;;;;;;;-146.64;100.00;37766.31;5038723;28;20028;-80
2022/06/04 07:14:14;;;;;;;11.77;5.27;;;;;;;-146.64;100.00;37684.47;5075977;28;20035;-79
2022/06/04 07:16:40;;;;;;;11.10;5.03;;;;;;;-146.64;100.00;37621.06;5079611;28;20054;-81
2022/06/04 07:19:05;;;;;;;10.60;4.65;;;;;;;-146.64;100.00;37786.75;5052592;28;20072;-81
2022/06/04 07:21:31;;;;;;;9.03;4.57;;;;;;;-146.64;100.00;37860.41;5045999;28;20033;-82
2022/06/04 07:23:57;;;;;;;14.33;5.33;;;;;;;-146.64;100.00;37786.75;5069376;28;20028;-79
2022/06/04 07:26:23;;;;;;;13.77;4.88;;;;;;;-146.64;100.00;37954.53;5054676;28;20029;-79
2022/06/04 07:28:49;;;;;;;9.57;5.20;;;;;;;-146.64;100.00;37891.09;5042703;28;20373;-80
2022/06/04 07:31:15;;;;;;;11.93;5.23;;;;;;;-146.64;100.00;37889.06;5035927;28;20032;-78
2022/06/04 07:33:45;;;;;;;10.07;5.32;;;;;;;-146.64;100.00;37872.69;5043288;28;20024;-79
2022/06/04 07:36:19;;;;;;;11.88;5.82;;;;;;;-146.64;100.00;37962.72;5053807;28;20033;-80
2022/06/04 07:38:46;;;;;;;7.25;4.95;;;;;;;-146.64;100.00;37966.78;5052684;28;20032;-78
2022/06/04 07:41:18;;;;;;;8.73;4.55;;;;;;;-146.64;100.00;37999.53;5052521;28;20028;-78
2022/06/04 07:43:43;;;;;;;8.57;4.22;;;;;;;-146.64;100.00;38071.13;5052331;28;20535;-78
2022/06/04 07:46:09;;;;;;;12.23;4.90;;;;;;;-146.64;100.00;38007.72;5060375;28;20113;-77
2022/06/04 07:48:34;;;;;;;9.63;4.93;;;;;;;-146.64;100.00;38050.69;5049676;28;20047;-77
2022/06/04 07:51:02;;;;;;;11.10;4.70;;;;;;;-146.64;100.00;37856.31;5054363;28;20111;-78
2022/06/04 07:53:28;;;;;;;12.02;5.57;;;;;;;-146.64;100.00;37876.78;5041871;28;20021;-77
2022/06/04 07:55:53;;;;;;;11.70;5.17;;;;;;;-146.64;100.00;37799.03;5054189;28;20039;-78
2022/06/04 07:58:18;;;;;;;6.87;4.17;;;;;;;-146.64;100.00;37917.69;5034240;28;20111;-79
2022/06/04 08:00:44;;;;;;;10.00;4.80;;;;;;;-146.64;100.00;37809.25;5032360;28;20155;-77
2022/06/04 08:03:09;;;;;;;8.43;4.90;;;;;;;-146.64;100.00;37860.41;5064984;28;20489;-77
2022/06/04 08:05:35;;;;;;;10.20;5.10;;;;;;;-146.64;100.00;37929.97;5069707;28;20113;-78
2022/06/04 08:08:00;;;;;;;9.47;4.77;;;;;;;-146.64;100.00;37958.63;5049890;28;20575;-80
2022/06/04 08:10:26;;;;;;;10.30;4.57;;;;;;;-146.64;100.00;38015.91;5067362;28;20475;-77
2022/06/04 08:12:53;;;;;;;14.27;4.93;;;;;;;-146.64;100.00;38017.94;5044968;28;20032;-81
2022/06/04 08:15:18;;;;;;;10.93;5.00;;;;;;;-146.64;100.00;37970.88;5049428;28;20022;-79
2022/06/04 08:17:47;;;;;;;10.43;5.00;;;;;;;-146.64;100.00;38011.81;5051984;28;20044;-78
2022/06/04 08:20:13;;;;;;;11.93;4.95;;;;;;;-146.64;100.00;37921.78;5049573;28;20021;-79
2022/06/04 08:22:39;;;;;;;8.90;4.03;;;;;;;-146.64;100.00;38044.53;5052485;28;20498;-80
2022/06/04 08:25:05;;;;;;;23.00;6.27;;;;;;;-146.64;100.00;37950.44;5051492;28;20028;-78
2022/06/04 08:27:30;;;;;;;6.67;4.47;;;;;;;-146.64;100.00;37954.53;5053761;28;20498;-79
2022/06/04 08:29:56;;;;;;;11.90;4.87;;;;;;;-146.64;100.00;37860.41;5058089;28;20166;-78
2022/06/04 08:32:21;;;;;;;8.37;5.00;;;;;;;-146.64;100.00;37977.03;5037781;28;20048;-77
2022/06/04 08:34:47;;;;;;;13.93;4.70;;;;;;;-146.64;100.00;37950.44;5052950;28;20021;-77
2022/06/04 08:37:12;;;;;;;7.77;5.10;;;;;;;-146.64;100.00;37925.88;5054405;28;20428;-78
2022/06/04 08:39:38;;;;;;;12.30;6.17;;;;;;;-146.64;100.00;37891.09;5065698;28;20036;-78
2022/06/04 08:42:09;;;;;;;8.27;4.50;;;;;;;-146.64;100.00;37893.16;5046895;28;20037;-77
2022/06/04 08:44:39;;;;;;;9.30;4.15;;;;;;;-146.64;100.00;37809.25;5047190;28;20035;-77
2022/06/04 08:47:18;;;;;;;8.20;4.40;;;;;;;-146.64;100.00;37880.88;5069459;28;20029;-78
2022/06/04 08:50:05;;;;;;;8.93;4.78;;;;;;;-146.64;100.00;37872.69;5050788;28;20113;-77
2022/06/04 08:52:34;;;;;;;10.35;4.68;;;;;;;-146.64;99.95;37839.94;5038983;28;20433;-78
2022/06/04 08:58:21;;;;;;;13.35;4.95;;;;;;;-146.64;99.09;37901.31;5069859;28;20118;-78
2022/06/04 09:00:52;;;;;;;13.07;5.15;;;;;;;-146.64;99.82;37811.31;5052898;28;20062;-77
2022/06/04 09:03:26;;;;;;;10.32;5.15;;;;;;;-146.64;100.00;37803.13;5066340;28;20024;-77
2022/06/04 09:06:03;;;;;;;9.65;5.15;;;;;;;-146.64;97.20;37803.13;5052911;28;20020;-79
2022/06/04 09:08:36;;;;;;;10.07;4.72;;;;;;;-146.64;96.30;37727.44;5065480;28;20058;-79
2022/06/04 09:11:04;;;;;;;10.23;5.47;;;;;;;-146.64;95.70;37696.75;5046490;28;20361;-79
2022/06/04 09:14:00;;;;;;;11.13;5.20;;;;;;;-146.64;93.18;37790.84;5032390;28;20122;-77
2022/06/04 09:16:34;;;;;;;9.80;4.35;;;;;;;-146.64;93.29;37719.25;5021904;28;20497;-77
2022/06/04 09:19:02;;;;;;;9.68;4.95;;;;;;;-146.64;92.55;37639.47;5029569;28;20036;-78
2022/06/04 09:21:33;;;;;;;7.97;4.75;;;;;;;-146.64;92.40;37678.34;5052968;28;20073;-77
2022/06/04 09:23:59;;;;;;;14.23;5.13;;;;;;;-146.64;91.24;37729.47;5061366;28;20106;-78
2022/06/04 09:26:33;;;;;;;9.43;4.90;;;;;;;-146.64;91.23;37614.91;5064592;28;20071;-79
2022/06/04 09:29:13;;;;;;;9.23;5.10;;;;;;;-146.64;89.56;37639.47;5043929;28;20352;-77
2022/06/04 09:31:55;;;;;;;10.23;5.07;;;;;;;-146.64;88.73;37549.47;5050661;28;20048;-77
2022/06/04 09:34:28;;;;;;;9.13;5.57;;;;;;;-146.64;88.86;37680.38;5042644;28;20032;-78
2022/06/04 09:36:54;;;;;;;10.88;4.82;;;;;;;-146.64;88.69;37569.91;5022287;28;20947;-78
2022/06/04 09:39:26;;;;;;;8.43;4.30;;;;;;;-146.64;89.00;37574.00;5051133;28;20045;-79
2022/06/04 09:42:00;;;;;;;8.00;5.70;;;;;;;-146.64;88.53;37602.66;5052977;28;20051;-79
2022/06/04 09:44:28;;;;;;;8.85;4.50;;;;;;;-146.64;87.11;37520.81;5060327;28;20068;-78
2022/06/04 09:47:05;;;;;;;13.30;5.28;;;;;;;-146.64;86.26;37475.81;5047553;28;20020;-79
2022/06/04 09:49:40;;;;;;;12.43;5.20;;;;;;;-146.64;86.75;37430.81;5066846;28;20466;-79
2022/06/04 09:52:23;;;;;;;12.75;5.15;;;;;;;-146.64;86.31;37518.78;5073418;28;20032;-79
2022/06/04 09:54:59;;;;;;;11.07;5.20;;;;;;;-146.64;86.52;37439.00;5074783;28;20113;-77
2022/06/04 09:57:35;;;;;;;14.05;4.60;;;;;;;-146.64;86.04;37377.63;5048318;28;20456;-76
2022/06/04 10:00:05;;;;;;;11.10;4.60;;;;;;;-146.64;86.26;37320.34;5042794;28;20476;-78
2022/06/04 10:02:30;;;;;;;8.70;4.88;;;;;;;-146.64;84.91;37297.84;5064944;28;20462;-76
2022/06/04 10:05:06;;;;;;;11.67;4.90;;;;;;;-146.64;84.67;37318.31;5050483;28;20028;-76
2022/06/04 10:07:38;;;;;;;12.98;4.85;;;;;;;-146.64;83.73;37348.97;5062062;28;20020;-76
2022/06/04 10:10:30;;;;;;;10.15;4.93;;;;;;;-146.64;83.19;37328.53;5051089;28;20025;-77
2022/06/04 10:15:47;;;;;;;7.97;5.35;;;;;;;-146.64;83.03;37340.81;5056348;28;20410;-78
2022/06/04 10:18:22;;;;;;;8.82;4.85;;;;;;;-146.64;82.47;37312.16;5050139;28;20021;-76
2022/06/04 10:21:03;;;;;;;11.27;5.65;;;;;;;-146.64;82.16;37291.72;5051155;28;20494;-76
2022/06/04 10:23:39;;;;;;;7.97;5.53;;;;;;;-146.64;80.76;37091.25;5051941;28;20033;-76
2022/06/04 10:26:17;;;;;;;9.07;5.07;;;;;;;-146.64;80.21;37238.53;5050100;28;20123;-76
2022/06/04 10:29:26;;;;;;;11.02;4.82;;;;;;;-146.64;82.76;37461.50;5063667;28;20299;-76
2022/06/04 10:32:06;;;;;;;13.23;5.30;;;;;;;-146.64;81.71;37316.25;4987904;28;20044;-77
2022/06/04 10:34:51;;;;;;;11.45;5.35;;;;;;;-146.64;82.11;37273.31;5062639;28;20574;-77
2022/06/04 10:37:22;;;;;;;8.48;5.45;;;;;;;-146.64;79.89;37081.03;5044795;28;20035;-76
2022/06/04 10:40:02;;;;;;;11.63;5.45;;;;;;;-146.64;78.96;37152.63;5068809;28;20068;-76
2022/06/04 10:42:55;;;;;;;14.65;5.68;;;;;;;-146.64;77.14;37074.88;5051432;28;20043;-77
2022/06/04 10:45:28;;;;;;;9.40;4.88;;;;;;;-146.64;75.57;36882.63;5061626;28;20032;-77
2022/06/04 10:48:00;;;;;;;10.05;5.15;;;;;;;-146.64;76.46;37115.78;5062404;28;20028;-77
2022/06/04 10:54:10;;;;;;;11.55;5.13;;;;;;;-146.64;75.66;37021.72;5068518;28;20509;-77
2022/06/04 10:56:46;;;;;;;6.90;5.00;;;;;;;-146.64;76.62;37154.66;5067221;28;20029;-77
2022/06/04 10:59:22;;;;;;;11.68;5.43;;;;;;;-146.64;77.72;37001.25;5054607;28;20107;-76
2022/06/04 11:02:02;;;;;;;13.48;4.10;;;;;;;-146.64;75.09;37033.97;5041243;28;20039;-76
2022/06/04 11:04:41;;;;;;;8.80;4.70;;;;;;;-146.64;76.88;37132.16;5044343;28;20510;-78
2022/06/04 11:07:29;;;;;;;9.18;4.43;;;;;;;-146.64;76.62;36997.16;5041187;28;20147;-77
2022/06/04 11:09:56;;;;;;;9.55;5.30;;;;;;;-146.64;74.88;36864.22;5058824;28;20683;-79
2022/06/04 11:12:58;;;;;;;7.97;4.28;;;;;;;-146.64;76.07;36849.91;5035700;28;20034;-79
2022/06/04 11:15:34;;;;;;;8.88;4.68;;;;;;;-146.64;74.96;36978.75;5056518;28;20064;-78
2022/06/04 11:18:12;;;;;;;6.65;4.35;;;;;;;-146.64;75.00;36948.06;5048254;28;20051;-79
2022/06/04 11:20:43;;;;;;;6.75;4.47;;;;;;;-146.64;74.07;37017.63;5068178;28;20498;-77
2022/06/04 11:23:16;;;;;;;8.10;4.85;;;;;;;-146.64;75.92;37119.88;5065965;28;20761;-78
2022/06/04 11:25:43;;;;;;;10.05;5.38;;;;;;;-146.64;76.80;37111.72;5034055;28;20037;-78
2022/06/04 11:28:11;;;;;;;10.93;4.63;;;;;;;-146.64;77.89;37083.06;5067416;28;20099;-78
2022/06/04 11:30:46;;;;;;;14.52;5.18;;;;;;;-146.64;77.76;37050.34;5050777;28;20115;-77
2022/06/04 11:33:30;;;;;;;10.90;5.18;;;;;;;-146.64;77.18;36948.06;5017571;28;20113;-77
2022/06/04 11:36:21;;;;;;;8.18;5.20;;;;;;;-146.64;77.34;37038.06;5030086;28;20479;-79
2022/06/04 11:39:05;;;;;;;11.63;5.13;;;;;;;-146.64;78.48;36966.47;5042736;28;20082;-77
2022/06/04 11:41:36;;;;;;;11.80;5.15;;;;;;;-146.64;76.34;36923.53;5054637;28;20036;-77